North West — NTHWST — position and weather

sailwx.info

Track history (hours):
 
Tides and Currents Weather Stations Pressure Air Temp Water Temp Dewpoint Dewpoint Depression Visibility Wind Speed Wind Dir Waves Ship Positions

North West

Last reported at 2017-Oct-15 02:11 UTC. Time now 2017-Oct-17 22:52 UTC.
Position S 27°28' E 153°16'.

Length 20 m; draft 1.5 m.

Type: Pleasure craft. MMSI: 503026110.

Date/timePositionNaut miles runAvg speedWind from/ knotsBaromVisibWave heightAir tempDewpointWater temp
2017-Oct-15 02:11S 27°28' E 153°16'210.1
2017-Oct-15 02:00S 27°29' E 153°18'5 9.1
2017-Oct-15 01:30S 27°31' E 153°22'2 3.7
2017-Oct-15 00:59S 27°31' E 153°24'0 0.0
2017-Oct-15 00:29S 27°31' E 153°24'0 0.0
2017-Oct-14 23:58S 27°31' E 153°24'0 0.0
2017-Oct-14 23:29S 27°31' E 153°24'0 0.0
2017-Oct-14 22:56S 27°31' E 153°24'0 0.0
2017-Oct-14 22:29S 27°31' E 153°24'0 0.0
2017-Oct-14 21:59S 27°31' E 153°24'0 0.0
2017-Oct-14 21:28S 27°31' E 153°24'0 0.0
2017-Oct-14 20:59S 27°31' E 153°24'0 0.0
2017-Oct-14 20:29S 27°31' E 153°24'0 0.0
2017-Oct-14 19:59S 27°31' E 153°24'0 0.0
2017-Oct-14 19:26S 27°31' E 153°24'0 0.0
2017-Oct-14 18:55S 27°31' E 153°24'0 0.0
2017-Oct-14 18:28S 27°31' E 153°24'0 0.0
2017-Oct-14 17:56S 27°31' E 153°24'0 0.0
2017-Oct-14 17:28S 27°31' E 153°24'0 0.0
2017-Oct-14 16:59S 27°31' E 153°24'0 0.0
2017-Oct-14 16:26S 27°31' E 153°24'0 0.0
2017-Oct-14 15:58S 27°31' E 153°24'0 0.0
2017-Oct-14 15:28S 27°31' E 153°24'0 0.0
2017-Oct-14 14:59S 27°31' E 153°24'0 0.0
2017-Oct-14 14:28S 27°31' E 153°24'0 0.0
2017-Oct-14 13:58S 27°31' E 153°24'0 0.0
2017-Oct-14 13:28S 27°31' E 153°24'0 0.0
2017-Oct-14 12:58S 27°31' E 153°24'0 0.0
2017-Oct-14 12:28S 27°31' E 153°24'0 0.0
2017-Oct-14 11:55S 27°31' E 153°24'0 0.0
2017-Oct-14 11:28S 27°31' E 153°24'0 0.0
2017-Oct-14 10:58S 27°31' E 153°24'0 0.0
2017-Oct-14 10:29S 27°31' E 153°24'0 0.0
2017-Oct-14 09:58S 27°31' E 153°24'0 0.0
2017-Oct-14 09:28S 27°31' E 153°24'0 0.0
2017-Oct-14 08:59S 27°31' E 153°24'0 0.0
2017-Oct-14 08:28S 27°31' E 153°24'0 0.0
2017-Oct-14 07:58S 27°31' E 153°24'0 0.0
2017-Oct-14 07:28S 27°31' E 153°24'0 0.0
2017-Oct-14 06:58S 27°31' E 153°24'0 0.1
2017-Oct-14 06:28S 27°31' E 153°24'0 0.1
2017-Oct-14 05:58S 27°31' E 153°24'0 0.0
2017-Oct-14 05:25S 27°31' E 153°24'0 0.1
2017-Oct-14 04:58S 27°31' E 153°24'1 1.4
2017-Oct-14 04:30S 27°31' E 153°24'2 3.4
2017-Oct-14 04:00S 27°30' E 153°22'0 0.0
2017-Oct-14 03:30S 27°30' E 153°22'0 0.0
2017-Oct-14 03:00S 27°30' E 153°22'0 0.7
2017-Oct-14 02:30S 27°30' E 153°23'4 7.6
2017-Oct-14 02:00S 27°28' E 153°19'  
Track history (hours):
 
Tides and Currents Weather Stations Pressure Air Temp Water Temp Dewpoint Dewpoint Depression Visibility Wind Speed Wind Dir Waves Ship Positions

North West

Last reported at 2017-Oct-15 02:11 UTC. Time now 2017-Oct-17 22:52 UTC.
Position S 27°28' E 153°16'.

Length 20 m; draft 1.5 m.

Type: Pleasure craft. MMSI: 503026110.

Date/timePositionNaut miles runAvg speedWind from/ knotsBaromVisibWave heightAir tempDewpointWater temp
2017-Oct-15 02:11S 27°28' E 153°16'210.1
2017-Oct-15 02:00S 27°29' E 153°18'5 9.1
2017-Oct-15 01:30S 27°31' E 153°22'2 3.7
2017-Oct-15 00:59S 27°31' E 153°24'0 0.0
2017-Oct-15 00:29S 27°31' E 153°24'0 0.0
2017-Oct-14 23:58S 27°31' E 153°24'0 0.0
2017-Oct-14 23:29S 27°31' E 153°24'0 0.0
2017-Oct-14 22:56S 27°31' E 153°24'0 0.0
2017-Oct-14 22:29S 27°31' E 153°24'0 0.0
2017-Oct-14 21:59S 27°31' E 153°24'0 0.0
2017-Oct-14 21:28S 27°31' E 153°24'0 0.0
2017-Oct-14 20:59S 27°31' E 153°24'0 0.0
2017-Oct-14 20:29S 27°31' E 153°24'0 0.0
2017-Oct-14 19:59S 27°31' E 153°24'0 0.0
2017-Oct-14 19:26S 27°31' E 153°24'0 0.0
2017-Oct-14 18:55S 27°31' E 153°24'0 0.0
2017-Oct-14 18:28S 27°31' E 153°24'0 0.0
2017-Oct-14 17:56S 27°31' E 153°24'0 0.0
2017-Oct-14 17:28S 27°31' E 153°24'0 0.0
2017-Oct-14 16:59S 27°31' E 153°24'0 0.0
2017-Oct-14 16:26S 27°31' E 153°24'0 0.0
2017-Oct-14 15:58S 27°31' E 153°24'0 0.0
2017-Oct-14 15:28S 27°31' E 153°24'0 0.0
2017-Oct-14 14:59S 27°31' E 153°24'0 0.0
2017-Oct-14 14:28S 27°31' E 153°24'0 0.0
2017-Oct-14 13:58S 27°31' E 153°24'0 0.0
2017-Oct-14 13:28S 27°31' E 153°24'0 0.0
2017-Oct-14 12:58S 27°31' E 153°24'0 0.0
2017-Oct-14 12:28S 27°31' E 153°24'0 0.0
2017-Oct-14 11:55S 27°31' E 153°24'0 0.0
2017-Oct-14 11:28S 27°31' E 153°24'0 0.0
2017-Oct-14 10:58S 27°31' E 153°24'0 0.0
2017-Oct-14 10:29S 27°31' E 153°24'0 0.0
2017-Oct-14 09:58S 27°31' E 153°24'0 0.0
2017-Oct-14 09:28S 27°31' E 153°24'0 0.0
2017-Oct-14 08:59S 27°31' E 153°24'0 0.0
2017-Oct-14 08:28S 27°31' E 153°24'0 0.0
2017-Oct-14 07:58S 27°31' E 153°24'0 0.0
2017-Oct-14 07:28S 27°31' E 153°24'0 0.0
2017-Oct-14 06:58S 27°31' E 153°24'0 0.1
2017-Oct-14 06:28S 27°31' E 153°24'0 0.1
2017-Oct-14 05:58S 27°31' E 153°24'0 0.0
2017-Oct-14 05:25S 27°31' E 153°24'0 0.1
2017-Oct-14 04:58S 27°31' E 153°24'1 1.4
2017-Oct-14 04:30S 27°31' E 153°24'2 3.4
2017-Oct-14 04:00S 27°30' E 153°22'0 0.0
2017-Oct-14 03:30S 27°30' E 153°22'0 0.0
2017-Oct-14 03:00S 27°30' E 153°22'0 0.7
2017-Oct-14 02:30S 27°30' E 153°23'4 7.6
2017-Oct-14 02:00S 27°28' E 153°19'  

Dump ship's entire track history